Time;durP1;ratioP1;P1;durP2;ratioP2;P2;SDS_P1;SDS_P2;PMS_P1;PMS_P2;Temp;Humidity;BMP_temperature;BMP_pressure;BME280_temperature;BME280_humidity;BME280_pressure;Samples;Min_cycle;Max_cycle;Signal;HPM_P1;HPM_P2
2021/09/05 00:02:06;;;;;;;9.70;4.67;;;;;;;9.28;64.92;99532.75;2170708;82;20980;-79
2021/09/05 00:05:07;;;;;;;7.90;4.43;;;;;;;9.26;64.09;99531.41;2171058;82;20984;-80
2021/09/05 00:08:07;;;;;;;8.17;4.20;;;;;;;9.06;64.65;99533.88;2171072;82;21449;-81
2021/09/05 00:11:08;;;;;;;9.33;5.07;;;;;;;9.02;64.95;99535.51;2171123;81;20932;-80
2021/09/05 00:14:08;;;;;;;7.77;4.50;;;;;;;8.97;65.85;99536.21;2170414;82;20949;-80
2021/09/05 00:17:09;;;;;;;10.80;4.57;;;;;;;9.06;66.20;99536.05;2170784;82;21738;-82
2021/09/05 00:20:09;;;;;;;7.53;4.63;;;;;;;9.03;65.86;99538.99;2171103;82;21008;-81
2021/09/05 00:23:11;;;;;;;7.53;4.37;;;;;;;8.92;66.08;99538.27;2171177;82;20944;-81
2021/09/05 00:26:12;;;;;;;6.20;4.50;;;;;;;9.06;66.87;99545.59;2171036;82;20973;-79
2021/09/05 00:29:12;;;;;;;8.80;4.37;;;;;;;8.97;66.11;99546.63;2170716;82;21008;-80
2021/09/05 00:32:13;;;;;;;13.53;4.83;;;;;;;8.88;66.74;99547.23;2170920;82;21175;-81
2021/09/05 00:35:14;;;;;;;13.20;5.20;;;;;;;8.89;67.03;99551.19;2171135;81;21039;-79
2021/09/05 00:38:15;;;;;;;17.03;5.33;;;;;;;8.87;66.99;99550.68;2171360;82;20941;-80
2021/09/05 00:41:15;;;;;;;12.20;4.93;;;;;;;8.82;66.65;99550.55;2171722;81;20992;-81
2021/09/05 00:44:16;;;;;;;9.17;4.50;;;;;;;8.74;67.02;99546.83;2171384;82;20996;-80
2021/09/05 00:47:16;;;;;;;9.97;5.00;;;;;;;8.68;66.97;99553.15;2171205;82;21385;-80
2021/09/05 00:50:17;;;;;;;10.70;5.20;;;;;;;8.61;67.21;99545.95;2171471;82;20964;-80
2021/09/05 00:56:34;;;;;;;6.27;4.33;;;;;;;8.70;67.29;99546.27;2349211;76;22700;-80
2021/09/05 00:59:34;;;;;;;8.60;4.80;;;;;;;8.62;67.73;99549.02;2317639;77;20970;-79
2021/09/05 01:02:35;;;;;;;14.33;5.10;;;;;;;8.69;66.79;99557.94;2317875;77;21025;-79
2021/09/05 01:05:35;;;;;;;9.00;4.30;;;;;;;8.57;67.18;99548.00;2317868;77;20978;-80
2021/09/05 01:08:35;;;;;;;6.27;4.73;;;;;;;8.54;67.54;99552.70;2317446;77;20959;-81
2021/09/05 01:11:36;;;;;;;6.30;4.90;;;;;;;8.49;67.40;99548.19;2317895;77;20943;-79
2021/09/05 01:14:37;;;;;;;7.07;4.90;;;;;;;8.37;67.42;99549.09;2317831;77;20963;-80
2021/09/05 01:17:37;;;;;;;7.40;4.97;;;;;;;8.33;67.83;99553.32;2317915;77;21302;-81
2021/09/05 01:20:38;;;;;;;11.43;5.90;;;;;;;8.36;68.37;99559.92;2317857;77;20935;-79
2021/09/05 01:23:38;;;;;;;11.27;6.17;;;;;;;8.56;68.61;99561.43;2317711;77;20981;-80
2021/09/05 01:26:39;;;;;;;7.70;5.60;;;;;;;8.60;67.68;99564.59;2317405;77;20963;-80
2021/09/05 01:29:39;;;;;;;9.33;5.70;;;;;;;8.53;67.94;99561.75;2317311;77;20950;-80
2021/09/05 01:32:40;;;;;;;7.57;5.43;;;;;;;8.60;68.77;99565.02;2317161;77;21342;-81
2021/09/05 01:35:40;;;;;;;9.60;5.00;;;;;;;8.73;67.40;99572.81;2317538;77;21025;-80
2021/09/05 01:38:41;;;;;;;8.03;5.07;;;;;;;8.55;67.08;99576.58;2317285;77;20938;-80
2021/09/05 01:41:41;;;;;;;9.93;5.63;;;;;;;8.34;66.94;99580.22;2317454;77;20954;-79
2021/09/05 01:44:42;;;;;;;9.77;5.60;;;;;;;8.24;67.33;99576.40;2317151;77;21408;-79
2021/09/05 01:47:42;;;;;;;12.30;7.23;;;;;;;8.17;67.80;99584.83;2317765;77;20951;-80
2021/09/05 01:50:43;;;;;;;13.87;7.07;;;;;;;8.30;67.83;99580.08;2317413;77;20986;-79
2021/09/05 01:53:43;;;;;;;8.00;5.40;;;;;;;8.24;67.33;99578.59;2317740;77;21257;-81
2021/09/05 01:56:44;;;;;;;13.00;6.87;;;;;;;8.26;69.00;99576.03;2304057;77;21003;-80
2021/09/05 01:59:44;;;;;;;8.47;5.80;;;;;;;8.49;67.40;99577.69;2304289;77;21387;-79
2021/09/05 02:02:45;;;;;;;7.07;5.47;;;;;;;8.26;66.64;99579.52;2304416;77;21431;-81
2021/09/05 02:05:45;;;;;;;9.13;4.73;;;;;;;8.10;67.07;99586.77;2303984;77;21004;-82
2021/09/05 02:08:46;;;;;;;13.47;5.60;;;;;;;7.99;67.12;99590.30;2303780;77;21336;-81
2021/09/05 02:11:47;;;;;;;7.00;5.20;;;;;;;8.03;68.59;99590.88;2303537;77;20902;-80
2021/09/05 02:14:48;;;;;;;8.53;5.80;;;;;;;8.33;69.64;99594.02;2303697;77;20997;-81
2021/09/05 02:17:48;;;;;;;9.13;5.50;;;;;;;8.26;66.97;99599.02;2303709;77;20953;-80
2021/09/05 02:20:49;;;;;;;8.63;6.10;;;;;;;8.03;66.93;99599.09;2303727;77;20941;-80
2021/09/05 02:23:49;;;;;;;8.43;5.07;;;;;;;7.89;67.53;99608.61;2303741;77;20941;-81
2021/09/05 02:26:50;;;;;;;9.97;4.90;;;;;;;7.86;68.48;99600.70;2273677;78;21314;-82
2021/09/05 02:29:50;;;;;;;9.03;5.70;;;;;;;8.03;68.03;99605.17;2281041;78;20962;-80
2021/09/05 02:32:51;;;;;;;8.50;5.40;;;;;;;7.91;67.26;99609.55;2281580;78;20969;-81
2021/09/05 02:35:51;;;;;;;8.07;5.83;;;;;;;7.90;68.40;99607.77;2281616;78;21349;-80
2021/09/05 02:38:52;;;;;;;9.80;6.07;;;;;;;8.03;69.16;99612.98;2280984;78;20891;-80
2021/09/05 02:41:52;;;;;;;13.37;5.70;;;;;;;8.03;67.67;99610.38;2281366;78;20954;-80
2021/09/05 02:44:53;;;;;;;8.03;5.83;;;;;;;7.86;67.33;99612.40;2281510;78;21325;-80
2021/09/05 02:47:53;;;;;;;11.20;5.60;;;;;;;7.66;67.14;99613.37;2281726;78;20938;-80
2021/09/05 02:50:54;;;;;;;7.50;4.57;;;;;;;7.48;67.38;99612.31;2281311;78;20958;-80
2021/09/05 02:53:54;;;;;;;8.90;5.00;;;;;;;7.42;67.58;99618.58;2281581;78;20977;-81
2021/09/05 02:56:55;;;;;;;6.67;4.60;;;;;;;7.39;67.65;99618.88;2249388;77;21000;-82
2021/09/05 02:59:55;;;;;;;11.03;4.93;;;;;;;7.49;69.11;99619.27;2248693;79;21370;-82
2021/09/05 03:02:56;;;;;;;8.20;4.97;;;;;;;7.62;68.17;99620.19;2248960;78;20967;-81
2021/09/05 03:05:56;;;;;;;8.53;5.00;;;;;;;7.47;67.63;99618.75;2249214;79;20976;-82
2021/09/05 03:08:57;;;;;;;8.37;5.17;;;;;;;7.46;68.66;99616.56;2249670;79;20956;-80
2021/09/05 03:11:58;;;;;;;14.63;7.60;;;;;;;7.57;67.38;99630.83;2249612;79;20936;-83
2021/09/05 03:14:58;;;;;;;10.13;6.83;;;;;;;7.29;67.15;99625.45;2249438;78;20956;-81
2021/09/05 03:17:59;;;;;;;9.80;4.93;;;;;;;6.98;67.26;99628.61;2249501;78;21319;-79
2021/09/05 03:20:59;;;;;;;9.03;4.70;;;;;;;6.70;67.36;99628.80;2249290;78;21267;-82
2021/09/05 03:23:59;;;;;;;9.37;4.70;;;;;;;6.41;67.27;99622.86;2249508;78;20975;-80
2021/09/05 03:27:00;;;;;;;12.77;5.00;;;;;;;6.12;67.60;99625.97;2249385;78;21343;-80
2021/09/05 03:30:00;;;;;;;9.57;5.27;;;;;;;5.86;68.16;99629.98;2249289;78;20990;-82
2021/09/05 03:33:01;;;;;;;8.33;4.40;;;;;;;5.66;68.74;99631.70;2249531;78;20904;-80
2021/09/05 03:36:01;;;;;;;8.27;4.60;;;;;;;5.48;68.79;99634.38;2249366;79;20948;-80
2021/09/05 03:39:02;;;;;;;9.27;4.63;;;;;;;5.28;69.04;99634.78;2249015;78;20955;-82
2021/09/05 03:42:02;;;;;;;6.43;4.67;;;;;;;5.10;69.48;99639.98;2249043;78;21418;-80
2021/09/05 03:45:03;;;;;;;7.13;4.60;;;;;;;4.97;69.94;99638.94;2248744;79;20941;-82
2021/09/05 03:48:04;;;;;;;9.10;5.17;;;;;;;4.85;70.28;99639.66;2249144;79;20983;-80
2021/09/05 03:51:04;;;;;;;8.67;4.90;;;;;;;4.78;70.61;99638.89;2249055;79;20940;-81
2021/09/05 03:54:05;;;;;;;10.63;4.80;;;;;;;4.73;70.96;99636.48;2249001;79;21036;-81
2021/09/05 03:57:05;;;;;;;10.50;4.70;;;;;;;4.69;71.23;99633.28;2288491;77;20996;-81
2021/09/05 04:00:06;;;;;;;8.00;4.27;;;;;;;4.63;71.18;99639.45;2291087;78;20905;-81
2021/09/05 04:03:06;;;;;;;7.27;4.53;;;;;;;4.60;71.33;99649.66;2290819;78;21374;-81
2021/09/05 04:06:06;;;;;;;7.27;4.50;;;;;;;4.57;71.51;99652.98;2291007;78;21300;-81
2021/09/05 04:09:17;;;;;;;8.80;5.00;;;;;;;4.51;71.60;99655.27;2291160;78;20920;-81
2021/09/05 04:12:12;;;;;;;10.17;5.47;;;;;;;4.51;71.86;99658.26;2290197;77;20983;-80
2021/09/05 04:15:13;;;;;;;7.20;4.60;;;;;;;4.50;71.96;99659.07;2291146;78;20936;-81
2021/09/05 04:18:13;;;;;;;10.83;5.30;;;;;;;4.50;72.04;99662.95;2291062;77;20905;-82
2021/09/05 04:21:14;;;;;;;9.80;4.80;;;;;;;4.50;72.18;99666.42;2291302;78;20968;-80
2021/09/05 04:24:14;;;;;;;12.47;4.30;;;;;;;4.50;72.09;99672.00;2291247;78;20940;-81
2021/09/05 04:27:15;;;;;;;9.00;4.80;;;;;;;4.46;72.22;99675.73;2291283;78;21481;-80
2021/09/05 04:30:15;;;;;;;8.57;4.90;;;;;;;4.49;72.34;99678.87;2290608;78;20897;-82
2021/09/05 04:33:16;;;;;;;9.17;4.93;;;;;;;4.51;72.46;99676.36;2291282;78;20920;-80
2021/09/05 04:36:16;;;;;;;8.50;4.80;;;;;;;4.50;72.34;99679.75;2290663;78;20947;-81
2021/09/05 04:39:17;;;;;;;9.47;4.93;;;;;;;4.52;72.71;99679.42;2290572;78;21007;-81
2021/09/05 04:42:17;;;;;;;5.50;4.20;;;;;;;4.59;72.76;99688.84;2290573;78;20978;-81
2021/09/05 04:45:18;;;;;;;7.83;5.17;;;;;;;4.64;72.87;99692.54;2290486;78;20936;-80
2021/09/05 04:48:18;;;;;;;9.37;4.87;;;;;;;4.74;72.97;99697.34;2289963;78;20940;-80
2021/09/05 04:51:19;;;;;;;12.23;5.40;;;;;;;4.91;73.02;99694.27;2290129;78;20959;-81
2021/09/05 04:54:19;;;;;;;9.37;5.17;;;;;;;5.09;72.93;99695.14;2290026;78;21362;-81
2021/09/05 04:57:20;;;;;;;9.73;5.27;;;;;;;5.25;72.76;99690.70;2280135;78;20997;-81
2021/09/05 05:00:20;;;;;;;8.47;5.20;;;;;;;5.39;72.65;99694.81;2280029;78;20910;-81
2021/09/05 05:03:21;;;;;;;8.00;4.67;;;;;;;5.54;72.46;99694.22;2280405;78;20985;-82
2021/09/05 05:06:21;;;;;;;8.80;5.80;;;;;;;5.72;72.53;99701.52;2280039;78;20922;-81
2021/09/05 05:09:22;;;;;;;8.87;5.27;;;;;;;5.92;72.69;99705.42;2280809;78;20981;-81
2021/09/05 05:12:22;;;;;;;8.23;5.50;;;;;;;6.18;72.68;99703.58;2280272;78;21337;-82
2021/09/05 05:15:23;;;;;;;11.17;4.87;;;;;;;6.37;72.31;99701.35;2280660;78;21013;-80
2021/09/05 05:18:23;;;;;;;7.77;4.97;;;;;;;6.58;72.19;99700.06;2280647;78;20961;-82
2021/09/05 05:21:27;;;;;;;8.80;5.40;;;;;;;6.75;72.42;99712.01;2280699;78;20981;-82
2021/09/05 05:24:28;;;;;;;10.28;5.42;;;;;;;6.95;72.31;99703.77;2281446;78;20949;-81
2021/09/05 05:27:28;;;;;;;8.03;5.30;;;;;;;7.31;72.68;99712.09;2281533;78;21001;-81
2021/09/05 05:30:29;;;;;;;7.07;5.00;;;;;;;7.54;72.30;99707.36;2281961;78;20973;-81
2021/09/05 05:33:29;;;;;;;10.40;5.33;;;;;;;7.81;72.21;99715.73;2281659;77;21352;-81
2021/09/05 05:36:30;;;;;;;7.23;5.57;;;;;;;8.03;72.14;99713.49;2281482;78;20974;-81
2021/09/05 05:39:30;;;;;;;6.40;5.07;;;;;;;8.28;71.94;99719.61;2281199;78;20957;-82
2021/09/05 05:42:31;;;;;;;11.40;5.20;;;;;;;8.56;71.94;99720.58;2281897;78;21007;-82
2021/09/05 05:45:32;;;;;;;10.40;5.57;;;;;;;8.78;71.92;99723.52;2281515;78;20974;-82
2021/09/05 05:48:32;;;;;;;13.30;4.90;;;;;;;9.01;71.98;99721.23;2281848;77;20950;-82
2021/09/05 05:51:32;;;;;;;8.00;4.70;;;;;;;9.29;72.25;99720.80;2282051;78;20993;-82
2021/09/05 05:57:35;;;;;;;5.73;4.90;;;;;;;9.78;72.11;99719.27;2266656;78;21086;-81
2021/09/05 06:00:38;;;;;;;8.13;5.47;;;;;;;9.97;71.19;99725.46;2291334;78;20968;-81
2021/09/05 06:03:38;;;;;;;9.73;4.83;;;;;;;10.18;71.26;99724.75;2291289;78;21090;-81
2021/09/05 06:06:39;;;;;;;7.07;5.13;;;;;;;10.42;70.83;99731.11;2291066;78;20921;-80
2021/09/05 06:09:39;;;;;;;9.53;5.30;;;;;;;10.79;70.50;99735.55;2291145;78;20944;-81
2021/09/05 06:12:41;;;;;;;7.07;4.93;;;;;;;11.20;70.80;99737.40;2291310;78;21083;-81
2021/09/05 06:15:41;;;;;;;7.53;4.72;;;;;;;11.47;69.71;99735.02;2291442;78;20995;-80
2021/09/05 06:18:42;;;;;;;6.67;3.92;;;;;;;11.80;69.59;99730.09;2291706;78;21227;-80
2021/09/05 06:21:43;;;;;;;6.33;4.05;;;;;;;12.13;68.58;99734.70;2291124;78;20986;-83
2021/09/05 06:24:43;;;;;;;9.08;4.37;;;;;;;12.44;67.76;99732.70;2291455;78;20980;-80
2021/09/05 06:27:44;;;;;;;13.72;4.20;;;;;;;12.67;68.07;99732.69;2291243;78;20995;-81
2021/09/05 06:30:44;;;;;;;5.50;3.45;;;;;;;12.98;67.73;99744.56;2291337;78;21375;-81
2021/09/05 06:33:45;;;;;;;4.78;3.67;;;;;;;13.22;65.13;99745.45;2290984;78;20986;-81
2021/09/05 06:36:46;;;;;;;6.30;3.40;;;;;;;13.47;65.45;99744.50;2291231;78;20937;-80
2021/09/05 06:39:46;;;;;;;5.95;3.50;;;;;;;13.73;63.95;99743.55;2291699;78;20974;-80
2021/09/05 06:42:46;;;;;;;4.90;3.08;;;;;;;14.01;63.77;99749.21;2291737;78;20976;-80
2021/09/05 06:45:47;;;;;;;3.98;3.47;;;;;;;14.23;62.79;99746.84;2291560;78;20956;-83
2021/09/05 06:48:47;;;;;;;5.25;3.47;;;;;;;14.56;62.56;99751.61;2292152;78;20996;-80
2021/09/05 06:51:48;;;;;;;7.58;3.37;;;;;;;14.85;61.42;99754.12;2292210;78;21343;-80
2021/09/05 06:54:48;;;;;;;6.12;3.42;;;;;;;15.15;60.77;99757.87;2292082;78;20980;-81
2021/09/05 06:57:49;;;;;;;3.90;2.83;;;;;;;15.38;59.14;99760.67;2283969;78;21009;-81
2021/09/05 07:00:50;;;;;;;3.35;2.67;;;;;;;15.55;58.51;99762.55;2281684;78;21028;-80
2021/09/05 07:03:50;;;;;;;5.37;2.50;;;;;;;15.62;57.30;99770.11;2281870;78;20961;-80
2021/09/05 07:06:51;;;;;;;3.52;2.40;;;;;;;15.76;58.02;99769.76;2281169;78;21414;-80
2021/09/05 07:09:51;;;;;;;4.45;2.62;;;;;;;15.96;56.30;99765.91;2281496;78;20965;-80
2021/09/05 07:12:52;;;;;;;4.37;2.58;;;;;;;16.19;56.28;99773.47;2282026;78;21024;-82
2021/09/05 07:18:55;;;;;;;4.83;2.55;;;;;;;16.52;51.30;99781.96;2261432;78;21065;-80
2021/09/05 07:21:55;;;;;;;3.60;2.30;;;;;;;16.48;50.32;99784.58;2282219;78;20969;-81
2021/09/05 07:24:56;;;;;;;5.95;2.35;;;;;;;16.54;51.30;99785.48;2281849;78;20918;-81
2021/09/05 07:27:56;;;;;;;4.72;2.50;;;;;;;16.77;51.88;99782.05;2282050;78;21040;-80
2021/09/05 07:30:57;;;;;;;2.83;2.00;;;;;;;16.92;51.23;99787.34;2282228;78;21675;-81
2021/09/05 07:33:58;;;;;;;3.83;2.25;;;;;;;17.04;49.98;99783.84;2282212;78;20978;-80
2021/09/05 07:36:58;;;;;;;2.80;2.05;;;;;;;17.10;50.37;99791.31;2282118;78;21007;-81
2021/09/05 07:39:59;;;;;;;2.10;1.75;;;;;;;17.13;48.92;99795.27;2282288;78;20989;-81
2021/09/05 07:42:59;;;;;;;3.95;2.62;;;;;;;17.23;48.88;99797.91;2282641;78;21426;-80
2021/09/05 07:46:00;;;;;;;6.37;2.05;;;;;;;17.36;48.73;99801.03;2282674;78;20934;-80
2021/09/05 07:49:01;;;;;;;3.05;1.82;;;;;;;17.49;47.20;99806.73;2282738;78;20994;-81
2021/09/05 07:52:01;;;;;;;2.65;1.60;;;;;;;17.65;48.55;99805.84;2282306;78;20981;-82
2021/09/05 07:55:02;;;;;;;3.37;1.75;;;;;;;17.92;46.52;99810.22;2282754;78;21021;-82
2021/09/05 07:58:04;;;;;;;2.22;1.60;;;;;;;18.07;46.63;99803.56;2234897;78;20999;-81
2021/09/05 08:01:05;;;;;;;3.60;1.45;;;;;;;18.20;45.19;99816.73;2250062;79;20913;-82
2021/09/05 08:04:06;;;;;;;1.72;1.42;;;;;;;18.21;44.43;99819.84;2249945;79;20964;-81
2021/09/05 08:07:06;;;;;;;2.12;1.40;;;;;;;18.27;45.06;99825.99;2250000;79;20964;-81
2021/09/05 08:10:07;;;;;;;1.70;1.60;;;;;;;18.36;44.54;99829.92;2250123;79;20952;-81
2021/09/05 08:13:07;;;;;;;2.35;1.32;;;;;;;18.46;43.90;99840.89;2250240;78;20997;-81
2021/09/05 08:16:08;;;;;;;18.42;16.05;;;;;;;18.57;43.18;99837.32;2250182;78;20980;-81
2021/09/05 08:19:09;;;;;;;2.83;2.17;;;;;;;18.75;43.43;99838.58;2249814;79;20972;-80
2021/09/05 08:22:09;;;;;;;4.87;1.57;;;;;;;18.82;41.19;99837.66;2250231;79;20905;-83
2021/09/05 08:25:10;;;;;;;1.70;1.60;;;;;;;18.77;42.54;99836.81;2249986;79;20960;-80
2021/09/05 08:28:12;;;;;;;1.75;1.50;;;;;;;18.80;41.27;99838.11;2249666;78;21015;-82
2021/09/05 08:31:13;;;;;;;1.98;1.55;;;;;;;18.85;42.44;99835.44;2249953;79;20984;-81
2021/09/05 08:34:13;;;;;;;1.87;1.47;;;;;;;18.90;41.56;99834.97;2250000;79;21011;-82
2021/09/05 08:37:14;;;;;;;1.77;1.52;;;;;;;18.98;41.50;99832.71;2250021;78;21604;-82
2021/09/05 08:40:16;;;;;;;2.72;1.82;;;;;;;19.02;41.09;99838.42;2249650;78;20999;-80
2021/09/05 08:43:17;;;;;;;2.02;1.60;;;;;;;19.08;39.12;99844.15;2249708;79;21031;-82
2021/09/05 08:46:17;;;;;;;1.80;1.70;;;;;;;19.08;39.85;99842.83;2250600;78;20952;-81
2021/09/05 08:49:18;;;;;;;4.00;1.77;;;;;;;19.06;40.27;99844.12;2249655;79;21002;-80
2021/09/05 08:52:19;;;;;;;3.55;1.60;;;;;;;19.20;40.37;99847.16;2250474;79;20944;-80
2021/09/05 08:55:20;;;;;;;2.08;1.50;;;;;;;19.35;39.36;99841.75;2249962;78;21383;-81
2021/09/05 08:58:21;;;;;;;2.60;1.55;;;;;;;19.22;39.04;99837.44;2254486;78;21060;-81
2021/09/05 09:01:21;;;;;;;1.50;1.40;;;;;;;19.31;39.99;99843.98;2282511;78;20965;-80
2021/09/05 09:04:22;;;;;;;2.45;1.62;;;;;;;19.45;38.71;99842.10;2282443;78;20986;-82
2021/09/05 09:07:22;;;;;;;3.62;1.52;;;;;;;19.58;38.90;99845.56;2282687;78;21000;-81
2021/09/05 09:10:23;;;;;;;2.08;1.52;;;;;;;19.68;38.85;99845.46;2282904;78;20950;-81
2021/09/05 09:13:24;;;;;;;2.42;1.70;;;;;;;19.87;39.02;99841.31;2282277;78;21009;-84
2021/09/05 09:16:24;;;;;;;1.62;1.52;;;;;;;19.86;38.39;99836.46;2282258;78;20989;-81
2021/09/05 09:19:25;;;;;;;2.90;1.90;;;;;;;19.82;37.72;99838.70;2282349;78;21306;-82
2021/09/05 09:22:26;;;;;;;4.58;2.08;;;;;;;19.70;37.96;99846.33;2281608;78;21376;-81
2021/09/05 09:25:26;;;;;;;2.70;1.62;;;;;;;19.77;38.56;99846.27;2282265;78;20982;-82
2021/09/05 09:28:27;;;;;;;4.00;1.90;;;;;;;19.94;38.32;99840.36;2281864;78;21005;-82
2021/09/05 09:31:27;;;;;;;2.45;1.90;;;;;;;20.05;37.46;99842.48;2282273;78;21000;-81
2021/09/05 09:34:28;;;;;;;1.52;1.42;;;;;;;19.94;37.02;99844.33;2282375;77;21350;-81
2021/09/05 09:37:29;;;;;;;2.27;2.05;;;;;;;19.97;37.76;99850.95;2282501;78;21436;-81
2021/09/05 09:40:29;;;;;;;3.30;2.08;;;;;;;19.95;37.18;99841.70;2281541;78;21357;-82
2021/09/05 09:43:30;;;;;;;3.83;2.20;;;;;;;19.77;37.40;99847.59;2281866;78;20923;-82
2021/09/05 09:46:30;;;;;;;2.00;1.80;;;;;;;19.64;37.95;99841.53;2282071;78;20985;-82
2021/09/05 09:49:31;;;;;;;4.15;2.22;;;;;;;19.58;37.78;99839.81;2282553;78;20942;-82
2021/09/05 09:52:32;;;;;;;3.70;1.80;;;;;;;19.78;38.14;99834.78;2282401;78;20942;-82
2021/09/05 09:55:32;;;;;;;2.85;1.92;;;;;;;20.14;37.71;99834.42;2282317;78;20969;-81
2021/09/05 09:58:35;;;;;;;2.15;1.90;;;;;;;20.39;37.65;99836.38;2289790;77;21010;-82
2021/09/05 10:01:37;;;;;;;2.10;1.90;;;;;;;20.72;37.75;99825.78;2292565;78;20963;-82
2021/09/05 10:04:37;;;;;;;7.25;2.10;;;;;;;20.96;37.44;99826.80;2292242;78;20990;-80
2021/09/05 10:07:38;;;;;;;2.65;1.57;;;;;;;21.09;36.43;99827.94;2292357;78;20947;-83
2021/09/05 10:10:38;;;;;;;2.35;2.02;;;;;;;20.97;36.75;99828.55;2292027;78;21000;-82
2021/09/05 10:13:39;;;;;;;2.67;1.82;;;;;;;20.66;37.55;99836.02;2292009;78;20944;-80
2021/09/05 10:16:39;;;;;;;3.98;1.62;;;;;;;20.21;37.43;99834.79;2291820;78;21035;-81
2021/09/05 10:19:40;;;;;;;1.77;1.67;;;;;;;20.05;37.80;99829.23;2292253;78;20932;-82
2021/09/05 10:22:40;;;;;;;3.25;2.00;;;;;;;20.22;36.53;99836.99;2292181;78;20921;-82
2021/09/05 10:25:41;;;;;;;3.45;1.82;;;;;;;19.89;37.05;99839.53;2291786;78;20968;-82
2021/09/05 10:28:42;;;;;;;2.20;1.60;;;;;;;19.54;36.66;99854.42;2291231;78;20979;-82
2021/09/05 10:31:42;;;;;;;1.62;1.52;;;;;;;19.39;37.00;99832.89;2292271;78;20944;-81
2021/09/05 10:34:42;;;;;;;2.17;1.90;;;;;;;19.88;36.31;99824.52;2292108;78;21359;-82
2021/09/05 10:37:43;;;;;;;3.20;1.77;;;;;;;20.37;36.72;99830.19;2292117;78;20904;-83
2021/09/05 10:40:44;;;;;;;2.50;1.70;;;;;;;20.79;36.79;99839.39;2291874;78;20971;-81
2021/09/05 10:43:44;;;;;;;1.85;1.72;;;;;;;20.89;36.72;99837.06;2291583;77;20952;-82
2021/09/05 10:46:45;;;;;;;1.75;1.65;;;;;;;20.87;37.06;99833.56;2292372;78;20943;-81
2021/09/05 10:49:46;;;;;;;2.15;1.87;;;;;;;21.14;36.01;99833.60;2291329;78;21331;-82
2021/09/05 10:52:46;;;;;;;2.77;1.60;;;;;;;20.85;35.76;99833.16;2291829;78;21312;-82
2021/09/05 10:55:47;;;;;;;3.17;1.55;;;;;;;21.06;36.04;99834.62;2291825;78;21003;-83
2021/09/05 10:58:47;;;;;;;6.80;1.80;;;;;;;21.24;35.30;99825.95;2283497;78;21279;-80
2021/09/05 11:01:47;;;;;;;1.70;1.60;;;;;;;21.33;35.01;99830.23;2282021;78;21025;-81
2021/09/05 11:04:48;;;;;;;1.80;1.55;;;;;;;20.93;34.80;99834.80;2281582;78;20985;-83
2021/09/05 11:07:48;;;;;;;2.85;1.70;;;;;;;20.41;35.67;99841.66;2281876;78;20981;-83
2021/09/05 11:10:49;;;;;;;1.67;1.50;;;;;;;19.86;36.47;99839.11;2281827;78;20946;-83
2021/09/05 11:13:50;;;;;;;3.20;1.82;;;;;;;19.49;38.13;99843.83;2281643;78;20926;-81
2021/09/05 11:16:50;;;;;;;2.12;1.55;;;;;;;19.39;38.58;99842.16;2281640;78;20989;-81
2021/09/05 11:19:51;;;;;;;1.85;1.70;;;;;;;19.34;38.69;99850.58;2281990;78;20950;-82
2021/09/05 11:22:51;;;;;;;1.67;1.57;;;;;;;19.28;39.43;99846.20;2282120;78;20977;-80
2021/09/05 11:25:52;;;;;;;2.00;1.80;;;;;;;19.36;39.29;99836.88;2281542;78;20961;-83
2021/09/05 11:28:52;;;;;;;2.33;1.57;;;;;;;19.41;39.07;99836.40;2282197;78;21088;-82
2021/09/05 11:31:53;;;;;;;1.62;1.50;;;;;;;19.48;39.04;99831.48;2281939;78;20985;-81
2021/09/05 11:34:54;;;;;;;17.60;2.98;;;;;;;19.94;39.75;99831.08;2282149;78;21396;-79
2021/09/05 11:37:56;;;;;;;2.83;1.80;;;;;;;20.50;38.68;99833.14;2282724;78;21028;-79
2021/09/05 11:40:56;;;;;;;1.70;1.60;;;;;;;20.90;36.70;99824.67;2282056;78;21014;-81
2021/09/05 11:43:57;;;;;;;3.17;1.52;;;;;;;21.20;36.52;99814.05;2281665;78;21001;-81
2021/09/05 11:46:57;;;;;;;1.98;1.57;;;;;;;21.60;35.50;99817.82;2281505;78;20957;-83
2021/09/05 11:49:58;;;;;;;1.80;1.45;;;;;;;22.03;34.29;99820.21;2281690;78;21027;-82
2021/09/05 11:52:59;;;;;;;2.33;1.77;;;;;;;22.10;33.48;99819.19;2281709;77;20996;-81
2021/09/05 11:55:59;;;;;;;1.92;1.70;;;;;;;22.15;33.12;99822.18;2282119;78;21056;-84
2021/09/05 12:02:02;;;;;;;2.00;1.57;;;;;;;21.46;34.98;99817.19;2250666;79;20986;-83
2021/09/05 12:05:03;;;;;;;2.22;1.90;;;;;;;20.92;35.45;99815.80;2276370;78;20934;-81
2021/09/05 12:08:03;;;;;;;3.72;3.40;;;;;;;20.54;36.74;99824.70;2281813;78;20997;-81
2021/09/05 12:11:07;;;;;;;19.55;15.20;;;;;;;20.53;36.68;99825.15;2281905;78;20934;-81
2021/09/05 12:14:07;;;;;;;3.77;2.42;;;;;;;20.57;36.67;99821.56;2282133;78;21361;-82
2021/09/05 12:17:11;;;;;;;5.28;3.52;;;;;;;20.87;35.64;99811.45;2281109;78;20978;-81
2021/09/05 12:20:11;;;;;;;2.47;1.98;;;;;;;21.25;34.87;99806.47;2281198;78;21424;-82
2021/09/05 12:23:15;;;;;;;2.50;2.30;;;;;;;21.50;33.96;99811.37;2281449;78;21006;-82
2021/09/05 12:26:15;;;;;;;2.00;1.55;;;;;;;21.30;35.11;99814.36;2280673;78;21703;-81
2021/09/05 12:29:16;;;;;;;12.98;11.78;;;;;;;20.97;35.55;99818.37;2280051;78;21000;-82
2021/09/05 12:32:16;;;;;;;24.10;21.55;;;;;;;20.82;35.87;99815.50;2281016;78;20922;-81
2021/09/05 12:35:19;;;;;;;2.87;1.95;;;;;;;20.95;36.09;99811.77;2280988;78;21449;-84
2021/09/05 12:38:20;;;;;;;2.20;1.57;;;;;;;21.09;35.58;99812.01;2281409;78;21362;-82
2021/09/05 12:41:20;;;;;;;1.98;1.67;;;;;;;21.17;35.38;99807.45;2280963;78;20938;-82
2021/09/05 12:44:21;;;;;;;2.15;1.57;;;;;;;21.37;35.28;99801.85;2281356;78;20962;-82
2021/09/05 12:47:24;;;;;;;1.98;1.50;;;;;;;21.62;34.22;99809.38;2281192;78;20954;-80
2021/09/05 12:50:25;;;;;;;1.92;1.72;;;;;;;21.75;34.25;99814.50;2281025;78;20958;-83
2021/09/05 12:53:25;;;;;;;1.67;1.57;;;;;;;21.78;34.00;99808.67;2281008;78;21305;-82
2021/09/05 12:56:27;;;;;;;3.40;1.80;;;;;;;21.86;33.76;99804.09;2259537;78;21381;-81
2021/09/05 12:59:28;;;;;;;2.25;2.05;;;;;;;22.14;33.36;99803.14;2289576;77;21035;-84
2021/09/05 13:02:28;;;;;;;2.08;1.87;;;;;;;22.25;33.72;99812.23;2290865;78;21311;-82
2021/09/05 13:05:31;;;;;;;3.10;2.00;;;;;;;22.20;34.09;99804.35;2267524;78;21322;-84
2021/09/05 13:08:31;;;;;;;4.55;1.90;;;;;;;22.06;33.74;99798.43;2290923;78;20963;-82
2021/09/05 13:11:32;;;;;;;1.45;1.25;;;;;;;21.56;35.09;99804.17;2290820;78;20947;-82
2021/09/05 13:14:32;;;;;;;3.33;2.40;;;;;;;21.02;35.44;99810.34;2291249;78;21019;-82
2021/09/05 13:17:33;;;;;;;1.95;1.80;;;;;;;20.54;35.90;99808.34;2291057;78;20967;-82
2021/09/05 13:20:33;;;;;;;2.80;1.80;;;;;;;20.21;37.19;99808.28;2290952;78;20994;-84
2021/09/05 13:23:34;;;;;;;2.12;1.90;;;;;;;20.00;37.82;99810.73;2290891;78;20961;-82
2021/09/05 13:26:34;;;;;;;2.33;2.10;;;;;;;19.94;37.94;99813.86;2290469;78;21339;-82
2021/09/05 13:29:35;;;;;;;2.52;1.60;;;;;;;20.21;36.53;99812.25;2291353;78;20968;-83
2021/09/05 13:32:35;;;;;;;1.80;1.70;;;;;;;20.40;36.16;99804.98;2291465;78;20920;-81
2021/09/05 13:35:36;;;;;;;2.10;1.70;;;;;;;20.56;35.43;99803.02;2291113;78;20983;-80
2021/09/05 13:38:36;;;;;;;1.87;1.70;;;;;;;20.82;35.06;99800.91;2291051;78;20987;-82
2021/09/05 13:41:39;;;;;;;2.08;1.80;;;;;;;20.96;34.86;99796.27;2291425;78;21319;-81
2021/09/05 13:44:40;;;;;;;3.67;1.77;;;;;;;21.13;34.30;99796.01;2290989;78;20947;-80
2021/09/05 13:47:40;;;;;;;1.77;1.67;;;;;;;21.19;35.25;99794.58;2291666;78;20952;-80
2021/09/05 13:50:41;;;;;;;2.70;1.80;;;;;;;21.37;35.28;99803.19;2291234;78;20951;-81
2021/09/05 13:53:44;;;;;;;4.95;1.80;;;;;;;21.42;34.91;99806.19;2290748;78;20947;-81
2021/09/05 13:56:44;;;;;;;2.22;1.87;;;;;;;21.36;34.25;99803.63;2290839;78;20955;-82
2021/09/05 13:59:44;;;;;;;3.33;2.77;;;;;;;21.17;35.03;99802.14;2254661;78;20978;-80
2021/09/05 14:02:45;;;;;;;5.83;3.42;;;;;;;20.80;34.88;99809.75;2248912;78;20928;-82
2021/09/05 14:05:45;;;;;;;4.80;4.00;;;;;;;20.33;35.73;99809.45;2248960;78;20936;-83
2021/09/05 14:08:46;;;;;;;9.33;6.78;;;;;;;19.95;36.64;99811.67;2248860;78;20946;-81
2021/09/05 14:11:46;;;;;;;13.98;12.68;;;;;;;19.67;37.59;99819.87;2248682;78;20932;-80
2021/09/05 14:14:46;;;;;;;9.10;8.20;;;;;;;19.45;38.16;99826.22;2249629;78;20944;-80
2021/09/05 14:17:49;;;;;;;3.55;3.25;;;;;;;19.32;38.83;99819.27;2249281;78;20964;-81
2021/09/05 14:20:50;;;;;;;3.00;2.80;;;;;;;19.22;39.89;99819.78;2249538;79;20963;-80
2021/09/05 14:23:52;;;;;;;6.60;3.85;;;;;;;19.34;39.48;99820.13;2249459;79;20990;-82
2021/09/05 14:26:58;;;;;;;3.05;2.52;;;;;;;19.57;38.60;99816.88;2249359;79;20935;-81